sensor_id;sensor_type;location;lat;lon;timestamp;temperature;humidity
7248;DHT22;3665;51.034;13.642;2023-10-13T00:01:15;15.30;99.90
7248;DHT22;3665;51.034;13.642;2023-10-13T00:06:01;15.30;99.90
7248;DHT22;3665;51.034;13.642;2023-10-13T00:10:50;15.30;99.90
7248;DHT22;3665;51.034;13.642;2023-10-13T00:15:40;15.30;99.90
7248;DHT22;3665;51.034;13.642;2023-10-13T00:20:42;15.30;99.90
7248;DHT22;3665;51.034;13.642;2023-10-13T00:25:31;15.30;99.90
7248;DHT22;3665;51.034;13.642;2023-10-13T00:30:25;15.40;99.90
7248;DHT22;3665;51.034;13.642;2023-10-13T00:35:21;15.30;99.90
7248;DHT22;3665;51.034;13.642;2023-10-13T00:40:12;15.40;99.90
7248;DHT22;3665;51.034;13.642;2023-10-13T00:45:22;15.40;99.90
7248;DHT22;3665;51.034;13.642;2023-10-13T00:50:10;15.40;99.90
7248;DHT22;3665;51.034;13.642;2023-10-13T00:55:06;15.40;99.90
7248;DHT22;3665;51.034;13.642;2023-10-13T00:59:55;15.40;99.90
7248;DHT22;3665;51.034;13.642;2023-10-13T01:04:39;15.40;99.90
7248;DHT22;3665;51.034;13.642;2023-10-13T01:09:23;15.40;99.90
7248;DHT22;3665;51.034;13.642;2023-10-13T01:14:10;15.50;99.90
7248;DHT22;3665;51.034;13.642;2023-10-13T01:19:16;15.40;99.90
7248;DHT22;3665;51.034;13.642;2023-10-13T01:24:11;15.40;99.90
7248;DHT22;3665;51.034;13.642;2023-10-13T01:29:14;15.50;99.90
7248;DHT22;3665;51.034;13.642;2023-10-13T01:34:01;15.40;99.90
7248;DHT22;3665;51.034;13.642;2023-10-13T01:38:50;15.40;99.90
7248;DHT22;3665;51.034;13.642;2023-10-13T01:43:36;15.40;99.90
7248;DHT22;3665;51.034;13.642;2023-10-13T01:48:22;15.40;99.90
7248;DHT22;3665;51.034;13.642;2023-10-13T01:53:22;15.40;99.90
7248;DHT22;3665;51.034;13.642;2023-10-13T01:58:15;15.50;99.90
7248;DHT22;3665;51.034;13.642;2023-10-13T02:03:19;15.50;99.90
7248;DHT22;3665;51.034;13.642;2023-10-13T02:08:11;15.50;99.90
7248;DHT22;3665;51.034;13.642;2023-10-13T02:12:59;15.50;99.90
7248;DHT22;3665;51.034;13.642;2023-10-13T02:17:45;15.50;99.90
7248;DHT22;3665;51.034;13.642;2023-10-13T02:22:36;15.50;99.90
7248;DHT22;3665;51.034;13.642;2023-10-13T02:27:22;15.60;99.90
7248;DHT22;3665;51.034;13.642;2023-10-13T02:32:09;15.50;99.90
7248;DHT22;3665;51.034;13.642;2023-10-13T02:37:15;15.50;99.90
7248;DHT22;3665;51.034;13.642;2023-10-13T02:42:03;15.60;99.90
7248;DHT22;3665;51.034;13.642;2023-10-13T02:46:49;15.50;99.90
7248;DHT22;3665;51.034;13.642;2023-10-13T02:51:35;15.50;99.90
7248;DHT22;3665;51.034;13.642;2023-10-13T02:56:25;15.50;99.90
7248;DHT22;3665;51.034;13.642;2023-10-13T03:01:13;15.60;99.90
7248;DHT22;3665;51.034;13.642;2023-10-13T03:06:16;15.50;99.90
7248;DHT22;3665;51.034;13.642;2023-10-13T03:11:03;15.60;99.90
7248;DHT22;3665;51.034;13.642;2023-10-13T03:15:52;15.50;99.90
7248;DHT22;3665;51.034;13.642;2023-10-13T03:20:50;15.50;99.90
7248;DHT22;3665;51.034;13.642;2023-10-13T03:25:44;15.60;99.90
7248;DHT22;3665;51.034;13.642;2023-10-13T03:30:35;15.60;99.90
7248;DHT22;3665;51.034;13.642;2023-10-13T03:35:23;15.60;99.90
7248;DHT22;3665;51.034;13.642;2023-10-13T03:40:10;15.40;99.90
7248;DHT22;3665;51.034;13.642;2023-10-13T03:45:21;15.30;99.90
7248;DHT22;3665;51.034;13.642;2023-10-13T03:50:17;15.10;99.90
7248;DHT22;3665;51.034;13.642;2023-10-13T03:55:24;14.90;99.90
7248;DHT22;3665;51.034;13.642;2023-10-13T04:00:11;15.00;99.90
7248;DHT22;3665;51.034;13.642;2023-10-13T04:05:06;15.00;99.90
7248;DHT22;3665;51.034;13.642;2023-10-13T04:10:01;15.00;99.90
7248;DHT22;3665;51.034;13.642;2023-10-13T04:15:22;15.10;99.90
7248;DHT22;3665;51.034;13.642;2023-10-13T04:20:17;15.00;99.90
7248;DHT22;3665;51.034;13.642;2023-10-13T04:25:16;15.00;99.90
7248;DHT22;3665;51.034;13.642;2023-10-13T04:30:23;15.00;99.90
7248;DHT22;3665;51.034;13.642;2023-10-13T04:35:30;15.00;99.90
7248;DHT22;3665;51.034;13.642;2023-10-13T04:40:41;15.20;99.90
7248;DHT22;3665;51.034;13.642;2023-10-13T04:45:38;15.20;99.90
7248;DHT22;3665;51.034;13.642;2023-10-13T04:50:35;15.30;99.90
7248;DHT22;3665;51.034;13.642;2023-10-13T04:55:38;15.20;99.90
7248;DHT22;3665;51.034;13.642;2023-10-13T05:00:44;15.20;99.90
7248;DHT22;3665;51.034;13.642;2023-10-13T05:06:18;15.20;99.90
7248;DHT22;3665;51.034;13.642;2023-10-13T05:11:22;15.30;99.90
7248;DHT22;3665;51.034;13.642;2023-10-13T05:16:42;15.30;99.90
7248;DHT22;3665;51.034;13.642;2023-10-13T05:21:45;15.20;99.90
7248;DHT22;3665;51.034;13.642;2023-10-13T05:26:49;15.20;99.90
7248;DHT22;3665;51.034;13.642;2023-10-13T05:31:54;15.30;99.90
7248;DHT22;3665;51.034;13.642;2023-10-13T05:36:58;15.30;99.90
7248;DHT22;3665;51.034;13.642;2023-10-13T05:42:01;15.40;99.90
7248;DHT22;3665;51.034;13.642;2023-10-13T05:47:05;15.40;99.90
7248;DHT22;3665;51.034;13.642;2023-10-13T05:52:09;15.50;99.90
7248;DHT22;3665;51.034;13.642;2023-10-13T05:57:22;15.60;99.90
7248;DHT22;3665;51.034;13.642;2023-10-13T06:02:26;15.60;99.90
7248;DHT22;3665;51.034;13.642;2023-10-13T06:07:30;15.70;99.90
7248;DHT22;3665;51.034;13.642;2023-10-13T06:12:33;15.80;99.90
7248;DHT22;3665;51.034;13.642;2023-10-13T06:17:48;15.90;99.90
7248;DHT22;3665;51.034;13.642;2023-10-13T06:22:50;16.00;90.80
7248;DHT22;3665;51.034;13.642;2023-10-13T06:27:53;16.10;92.10
7248;DHT22;3665;51.034;13.642;2023-10-13T06:33:15;16.20;60.60
7248;DHT22;3665;51.034;13.642;2023-10-13T06:38:01;16.30;40.80
7248;DHT22;3665;51.034;13.642;2023-10-13T06:43:04;16.40;39.90
7248;DHT22;3665;51.034;13.642;2023-10-13T06:48:08;16.50;38.00
7248;DHT22;3665;51.034;13.642;2023-10-13T06:53:14;16.60;28.70
7248;DHT22;3665;51.034;13.642;2023-10-13T06:58:01;16.70;25.30
7248;DHT22;3665;51.034;13.642;2023-10-13T07:02:50;16.80;19.80
7248;DHT22;3665;51.034;13.642;2023-10-13T07:07:38;16.90;22.40
7248;DHT22;3665;51.034;13.642;2023-10-13T07:12:29;17.00;17.40
7248;DHT22;3665;51.034;13.642;2023-10-13T07:17:15;17.20;10.60
7248;DHT22;3665;51.034;13.642;2023-10-13T07:22:21;17.50;1.00
7248;DHT22;3665;51.034;13.642;2023-10-13T07:27:05;17.60;1.00
7248;DHT22;3665;51.034;13.642;2023-10-13T07:31:56;17.80;1.00
7248;DHT22;3665;51.034;13.642;2023-10-13T07:36:40;17.80;1.00
7248;DHT22;3665;51.034;13.642;2023-10-13T07:41:28;17.90;1.00
7248;DHT22;3665;51.034;13.642;2023-10-13T07:46:14;18.00;1.00
7248;DHT22;3665;51.034;13.642;2023-10-13T07:51:08;18.20;1.00
7248;DHT22;3665;51.034;13.642;2023-10-13T07:55:53;18.40;1.00
7248;DHT22;3665;51.034;13.642;2023-10-13T08:00:40;18.60;1.00
7248;DHT22;3665;51.034;13.642;2023-10-13T08:05:40;19.10;1.00
7248;DHT22;3665;51.034;13.642;2023-10-13T08:10:49;19.60;1.00
7248;DHT22;3665;51.034;13.642;2023-10-13T08:15:40;19.90;1.00
7248;DHT22;3665;51.034;13.642;2023-10-13T08:20:41;19.80;1.00
7248;DHT22;3665;51.034;13.642;2023-10-13T08:25:28;19.80;1.00
7248;DHT22;3665;51.034;13.642;2023-10-13T08:30:53;19.70;1.00
7248;DHT22;3665;51.034;13.642;2023-10-13T08:35:38;19.70;1.00
7248;DHT22;3665;51.034;13.642;2023-10-13T08:40:42;19.60;1.00
7248;DHT22;3665;51.034;13.642;2023-10-13T08:45:48;19.70;1.00
7248;DHT22;3665;51.034;13.642;2023-10-13T08:50:50;19.90;1.00
7248;DHT22;3665;51.034;13.642;2023-10-13T08:55:38;20.30;1.00
7248;DHT22;3665;51.034;13.642;2023-10-13T09:00:45;20.30;1.00
7248;DHT22;3665;51.034;13.642;2023-10-13T09:05:47;20.10;1.00
7248;DHT22;3665;51.034;13.642;2023-10-13T09:10:44;20.00;1.00
7248;DHT22;3665;51.034;13.642;2023-10-13T09:16:17;20.00;1.00
7248;DHT22;3665;51.034;13.642;2023-10-13T09:21:37;20.00;1.00
7248;DHT22;3665;51.034;13.642;2023-10-13T09:26:35;20.00;1.00
7248;DHT22;3665;51.034;13.642;2023-10-13T09:31:24;20.10;1.00
7248;DHT22;3665;51.034;13.642;2023-10-13T09:36:12;20.30;1.00
7248;DHT22;3665;51.034;13.642;2023-10-13T09:41:04;20.70;1.00
7248;DHT22;3665;51.034;13.642;2023-10-13T09:46:01;20.90;1.00
7248;DHT22;3665;51.034;13.642;2023-10-13T09:50:59;20.90;1.00
7248;DHT22;3665;51.034;13.642;2023-10-13T09:55:46;20.70;1.00
7248;DHT22;3665;51.034;13.642;2023-10-13T10:00:34;20.70;1.00
7248;DHT22;3665;51.034;13.642;2023-10-13T10:05:57;20.70;1.00
7248;DHT22;3665;51.034;13.642;2023-10-13T10:10:59;20.60;1.00
7248;DHT22;3665;51.034;13.642;2023-10-13T10:15:47;20.70;1.00
7248;DHT22;3665;51.034;13.642;2023-10-13T10:20:37;20.70;1.00
7248;DHT22;3665;51.034;13.642;2023-10-13T10:25:34;20.60;1.00
7248;DHT22;3665;51.034;13.642;2023-10-13T10:30:24;20.40;1.00
7248;DHT22;3665;51.034;13.642;2023-10-13T10:35:12;20.50;1.00
7248;DHT22;3665;51.034;13.642;2023-10-13T10:40:19;20.50;1.00
7248;DHT22;3665;51.034;13.642;2023-10-13T10:45:35;20.50;1.00
7248;DHT22;3665;51.034;13.642;2023-10-13T10:50:26;20.30;1.00
7248;DHT22;3665;51.034;13.642;2023-10-13T10:55:25;20.40;1.00
7248;DHT22;3665;51.034;13.642;2023-10-13T11:00:33;20.50;1.00
7248;DHT22;3665;51.034;13.642;2023-10-13T11:05:43;20.70;1.00
7248;DHT22;3665;51.034;13.642;2023-10-13T11:10:45;20.90;1.00
7248;DHT22;3665;51.034;13.642;2023-10-13T11:15:42;21.10;1.00
7248;DHT22;3665;51.034;13.642;2023-10-13T11:20:27;21.10;1.00
7248;DHT22;3665;51.034;13.642;2023-10-13T11:25:25;21.20;1.00
7248;DHT22;3665;51.034;13.642;2023-10-13T11:30:27;21.00;1.00
7248;DHT22;3665;51.034;13.642;2023-10-13T11:35:25;21.20;1.00
7248;DHT22;3665;51.034;13.642;2023-10-13T11:40:13;21.20;1.00
7248;DHT22;3665;51.034;13.642;2023-10-13T11:45:22;21.20;1.00
7248;DHT22;3665;51.034;13.642;2023-10-13T11:50:22;21.30;1.00
7248;DHT22;3665;51.034;13.642;2023-10-13T11:55:19;21.50;1.00
7248;DHT22;3665;51.034;13.642;2023-10-13T12:00:15;21.40;1.00
7248;DHT22;3665;51.034;13.642;2023-10-13T12:05:21;21.20;1.00
7248;DHT22;3665;51.034;13.642;2023-10-13T12:10:39;21.10;1.00
7248;DHT22;3665;51.034;13.642;2023-10-13T12:15:35;21.10;1.00
7248;DHT22;3665;51.034;13.642;2023-10-13T12:20:32;21.10;1.00
7248;DHT22;3665;51.034;13.642;2023-10-13T12:25:18;21.10;1.00
7248;DHT22;3665;51.034;13.642;2023-10-13T12:30:12;21.10;1.00
7248;DHT22;3665;51.034;13.642;2023-10-13T12:34:56;21.20;1.00
7248;DHT22;3665;51.034;13.642;2023-10-13T12:39:48;21.10;1.00
7248;DHT22;3665;51.034;13.642;2023-10-13T12:44:49;21.00;1.00
7248;DHT22;3665;51.034;13.642;2023-10-13T12:49:50;21.00;1.00
7248;DHT22;3665;51.034;13.642;2023-10-13T12:54:40;21.10;1.00
7248;DHT22;3665;51.034;13.642;2023-10-13T12:59:45;21.40;1.00
7248;DHT22;3665;51.034;13.642;2023-10-13T13:04:30;21.60;1.00
7248;DHT22;3665;51.034;13.642;2023-10-13T13:09:19;21.90;1.00
7248;DHT22;3665;51.034;13.642;2023-10-13T13:14:09;22.50;1.00
7248;DHT22;3665;51.034;13.642;2023-10-13T13:18:55;22.90;1.00
7248;DHT22;3665;51.034;13.642;2023-10-13T13:23:45;23.10;1.00
7248;DHT22;3665;51.034;13.642;2023-10-13T13:28:30;23.30;1.00
7248;DHT22;3665;51.034;13.642;2023-10-13T13:33:20;23.30;1.00
7248;DHT22;3665;51.034;13.642;2023-10-13T13:38:08;23.50;1.00
7248;DHT22;3665;51.034;13.642;2023-10-13T13:43:13;23.80;1.00
7248;DHT22;3665;51.034;13.642;2023-10-13T13:48:14;24.00;1.00
7248;DHT22;3665;51.034;13.642;2023-10-13T13:53:03;24.10;1.00
7248;DHT22;3665;51.034;13.642;2023-10-13T13:57:52;24.10;1.00
7248;DHT22;3665;51.034;13.642;2023-10-13T14:02:38;24.10;1.00
7248;DHT22;3665;51.034;13.642;2023-10-13T14:07:25;24.00;1.00
7248;DHT22;3665;51.034;13.642;2023-10-13T14:12:14;23.90;1.00
7248;DHT22;3665;51.034;13.642;2023-10-13T14:17:35;23.80;1.00
7248;DHT22;3665;51.034;13.642;2023-10-13T14:22:21;23.70;1.00
7248;DHT22;3665;51.034;13.642;2023-10-13T14:27:09;23.40;1.00
7248;DHT22;3665;51.034;13.642;2023-10-13T15:01:17;23.20;1.00
7248;DHT22;3665;51.034;13.642;2023-10-13T15:10:15;22.80;1.00
7248;DHT22;3665;51.034;13.642;2023-10-13T15:17:57;22.50;1.00
7248;DHT22;3665;51.034;13.642;2023-10-13T15:22:47;22.30;1.00
7248;DHT22;3665;51.034;13.642;2023-10-13T15:27:33;22.20;1.00
7248;DHT22;3665;51.034;13.642;2023-10-13T15:40:10;21.50;1.00
7248;DHT22;3665;51.034;13.642;2023-10-13T15:45:03;21.50;1.00
7248;DHT22;3665;51.034;13.642;2023-10-13T15:49:58;21.40;1.00
7248;DHT22;3665;51.034;13.642;2023-10-13T15:54:46;21.30;1.00
7248;DHT22;3665;51.034;13.642;2023-10-13T15:59:35;21.30;1.00
7248;DHT22;3665;51.034;13.642;2023-10-13T16:04:22;21.30;1.00
7248;DHT22;3665;51.034;13.642;2023-10-13T16:09:08;21.40;1.00
7248;DHT22;3665;51.034;13.642;2023-10-13T16:13:58;21.20;1.00
7248;DHT22;3665;51.034;13.642;2023-10-13T16:18:45;21.10;1.00
7248;DHT22;3665;51.034;13.642;2023-10-13T16:23:36;21.00;1.00
7248;DHT22;3665;51.034;13.642;2023-10-13T16:28:21;21.10;1.00
7248;DHT22;3665;51.034;13.642;2023-10-13T16:33:10;21.00;1.00
7248;DHT22;3665;51.034;13.642;2023-10-13T16:38:08;21.00;1.00
7248;DHT22;3665;51.034;13.642;2023-10-13T16:43:06;21.00;1.00
7248;DHT22;3665;51.034;13.642;2023-10-13T16:47:50;20.90;1.00
7248;DHT22;3665;51.034;13.642;2023-10-13T16:52:36;20.90;1.00
7248;DHT22;3665;51.034;13.642;2023-10-13T16:57:29;20.80;1.00
7248;DHT22;3665;51.034;13.642;2023-10-13T17:02:13;20.60;1.00
7248;DHT22;3665;51.034;13.642;2023-10-13T17:07:02;20.50;1.00
7248;DHT22;3665;51.034;13.642;2023-10-13T17:11:49;20.50;1.00
7248;DHT22;3665;51.034;13.642;2023-10-13T17:16:38;20.60;1.00
7248;DHT22;3665;51.034;13.642;2023-10-13T17:21:26;20.60;1.00
7248;DHT22;3665;51.034;13.642;2023-10-13T17:26:13;20.60;1.00
7248;DHT22;3665;51.034;13.642;2023-10-13T17:34:12;20.50;1.00
7248;DHT22;3665;51.034;13.642;2023-10-13T17:39:01;20.60;1.00
7248;DHT22;3665;51.034;13.642;2023-10-13T17:43:50;20.50;1.00
7248;DHT22;3665;51.034;13.642;2023-10-13T17:48:41;20.50;1.00
7248;DHT22;3665;51.034;13.642;2023-10-13T17:53:27;20.40;1.00
7248;DHT22;3665;51.034;13.642;2023-10-13T17:58:32;20.30;1.00
7248;DHT22;3665;51.034;13.642;2023-10-13T18:03:17;20.30;1.00
7248;DHT22;3665;51.034;13.642;2023-10-13T18:08:07;20.20;1.00
7248;DHT22;3665;51.034;13.642;2023-10-13T18:12:52;20.30;1.00
7248;DHT22;3665;51.034;13.642;2023-10-13T18:17:36;20.30;1.00
7248;DHT22;3665;51.034;13.642;2023-10-13T18:22:29;20.20;1.00
7248;DHT22;3665;51.034;13.642;2023-10-13T18:27:22;20.30;1.00
7248;DHT22;3665;51.034;13.642;2023-10-13T18:32:19;20.30;1.00
7248;DHT22;3665;51.034;13.642;2023-10-13T18:37:09;20.30;1.00
7248;DHT22;3665;51.034;13.642;2023-10-13T18:42:00;20.20;1.00
7248;DHT22;3665;51.034;13.642;2023-10-13T18:46:45;20.10;1.00
7248;DHT22;3665;51.034;13.642;2023-10-13T18:51:33;20.20;1.00
7248;DHT22;3665;51.034;13.642;2023-10-13T18:56:23;20.10;1.00
7248;DHT22;3665;51.034;13.642;2023-10-13T19:01:10;20.20;1.00
7248;DHT22;3665;51.034;13.642;2023-10-13T19:05:57;20.20;1.00
7248;DHT22;3665;51.034;13.642;2023-10-13T19:10:46;20.30;1.00
7248;DHT22;3665;51.034;13.642;2023-10-13T19:15:38;20.40;1.00
7248;DHT22;3665;51.034;13.642;2023-10-13T19:20:22;20.30;1.00
7248;DHT22;3665;51.034;13.642;2023-10-13T19:25:08;20.30;1.00
7248;DHT22;3665;51.034;13.642;2023-10-13T19:29:56;20.40;1.00
7248;DHT22;3665;51.034;13.642;2023-10-13T19:34:45;20.40;1.00
7248;DHT22;3665;51.034;13.642;2023-10-13T19:39:37;20.30;1.00
7248;DHT22;3665;51.034;13.642;2023-10-13T19:44:30;20.30;1.00
7248;DHT22;3665;51.034;13.642;2023-10-13T19:49:28;20.20;1.00
7248;DHT22;3665;51.034;13.642;2023-10-13T19:54:13;20.20;1.00
7248;DHT22;3665;51.034;13.642;2023-10-13T19:59:03;20.20;1.00
7248;DHT22;3665;51.034;13.642;2023-10-13T20:03:51;20.20;1.00
7248;DHT22;3665;51.034;13.642;2023-10-13T20:08:45;20.10;1.00
7248;DHT22;3665;51.034;13.642;2023-10-13T20:13:31;20.20;1.00
7248;DHT22;3665;51.034;13.642;2023-10-13T20:18:19;20.20;1.00
7248;DHT22;3665;51.034;13.642;2023-10-13T20:23:06;20.20;1.00
7248;DHT22;3665;51.034;13.642;2023-10-13T20:27:59;20.20;1.00
7248;DHT22;3665;51.034;13.642;2023-10-13T20:32:43;20.10;1.00
7248;DHT22;3665;51.034;13.642;2023-10-13T20:37:31;20.10;1.00
7248;DHT22;3665;51.034;13.642;2023-10-13T20:42:18;20.10;1.00
7248;DHT22;3665;51.034;13.642;2023-10-13T20:47:25;20.10;1.00
7248;DHT22;3665;51.034;13.642;2023-10-13T20:52:10;20.20;1.00
7248;DHT22;3665;51.034;13.642;2023-10-13T20:57:00;20.20;1.00
7248;DHT22;3665;51.034;13.642;2023-10-13T21:01:55;20.20;1.00
7248;DHT22;3665;51.034;13.642;2023-10-13T21:06:53;20.40;1.00
7248;DHT22;3665;51.034;13.642;2023-10-13T21:11:39;20.50;1.00
7248;DHT22;3665;51.034;13.642;2023-10-13T21:16:26;20.50;1.00
7248;DHT22;3665;51.034;13.642;2023-10-13T21:21:14;20.50;1.00
7248;DHT22;3665;51.034;13.642;2023-10-13T21:26:05;20.60;1.00
7248;DHT22;3665;51.034;13.642;2023-10-13T21:30:51;20.70;1.00
7248;DHT22;3665;51.034;13.642;2023-10-13T21:35:41;20.70;1.00
7248;DHT22;3665;51.034;13.642;2023-10-13T21:40:29;20.80;1.00
7248;DHT22;3665;51.034;13.642;2023-10-13T21:45:17;20.80;1.00
7248;DHT22;3665;51.034;13.642;2023-10-13T21:50:03;20.80;1.00
7248;DHT22;3665;51.034;13.642;2023-10-13T21:54:49;20.90;1.00
7248;DHT22;3665;51.034;13.642;2023-10-13T21:59:38;20.80;1.00
7248;DHT22;3665;51.034;13.642;2023-10-13T22:04:26;20.90;1.00
7248;DHT22;3665;51.034;13.642;2023-10-13T22:09:15;21.00;1.00
7248;DHT22;3665;51.034;13.642;2023-10-13T22:14:02;21.10;1.00
7248;DHT22;3665;51.034;13.642;2023-10-13T22:18:51;21.10;1.00
7248;DHT22;3665;51.034;13.642;2023-10-13T22:23:40;21.00;1.00
7248;DHT22;3665;51.034;13.642;2023-10-13T22:28:26;21.00;1.00
7248;DHT22;3665;51.034;13.642;2023-10-13T22:33:15;20.90;1.00
7248;DHT22;3665;51.034;13.642;2023-10-13T22:38:02;20.90;1.00
7248;DHT22;3665;51.034;13.642;2023-10-13T22:42:51;20.80;1.00
7248;DHT22;3665;51.034;13.642;2023-10-13T22:47:41;20.80;1.00
7248;DHT22;3665;51.034;13.642;2023-10-13T22:52:26;20.80;1.00
7248;DHT22;3665;51.034;13.642;2023-10-13T22:57:16;20.70;1.00
7248;DHT22;3665;51.034;13.642;2023-10-13T23:02:01;20.60;1.00
7248;DHT22;3665;51.034;13.642;2023-10-13T23:06:45;20.70;1.00
7248;DHT22;3665;51.034;13.642;2023-10-13T23:11:32;20.90;1.00
7248;DHT22;3665;51.034;13.642;2023-10-13T23:16:28;20.80;1.00
7248;DHT22;3665;51.034;13.642;2023-10-13T23:21:13;20.80;1.00
7248;DHT22;3665;51.034;13.642;2023-10-13T23:26:11;20.90;1.00
7248;DHT22;3665;51.034;13.642;2023-10-13T23:31:05;21.00;1.00
7248;DHT22;3665;51.034;13.642;2023-10-13T23:35:51;21.10;1.00
7248;DHT22;3665;51.034;13.642;2023-10-13T23:40:38;21.20;1.00
7248;DHT22;3665;51.034;13.642;2023-10-13T23:45:29;21.20;1.00
7248;DHT22;3665;51.034;13.642;2023-10-13T23:50:25;21.20;1.00
7248;DHT22;3665;51.034;13.642;2023-10-13T23:55:10;21.30;1.00
